sensor_id;sensor_type;location;lat;lon;timestamp;P1;durP1;ratioP1;P2;durP2;ratioP2
23088;SDS011;11713;48.506;8.966;2023-10-31T00:01:49;0.70;;;0.70;;
23088;SDS011;11713;48.506;8.966;2023-10-31T00:04:15;1.10;;;0.80;;
23088;SDS011;11713;48.506;8.966;2023-10-31T00:06:41;1.07;;;0.80;;
23088;SDS011;11713;48.506;8.966;2023-10-31T00:09:07;1.00;;;0.80;;
23088;SDS011;11713;48.506;8.966;2023-10-31T00:11:36;0.83;;;0.60;;
23088;SDS011;11713;48.506;8.966;2023-10-31T00:14:02;0.60;;;0.47;;
23088;SDS011;11713;48.506;8.966;2023-10-31T00:16:28;1.50;;;0.77;;
23088;SDS011;11713;48.506;8.966;2023-10-31T00:18:54;1.20;;;0.90;;
23088;SDS011;11713;48.506;8.966;2023-10-31T00:21:19;2.20;;;1.00;;
23088;SDS011;11713;48.506;8.966;2023-10-31T00:23:48;1.00;;;0.43;;
23088;SDS011;11713;48.506;8.966;2023-10-31T00:26:14;2.37;;;1.00;;
23088;SDS011;11713;48.506;8.966;2023-10-31T00:28:48;1.13;;;0.63;;
23088;SDS011;11713;48.506;8.966;2023-10-31T00:31:13;0.83;;;0.50;;
23088;SDS011;11713;48.506;8.966;2023-10-31T00:33:39;0.97;;;0.50;;
23088;SDS011;11713;48.506;8.966;2023-10-31T00:36:07;1.50;;;0.47;;
23088;SDS011;11713;48.506;8.966;2023-10-31T00:38:33;0.50;;;0.50;;
23088;SDS011;11713;48.506;8.966;2023-10-31T00:40:59;0.80;;;0.50;;
23088;SDS011;11713;48.506;8.966;2023-10-31T00:43:25;0.50;;;0.50;;
23088;SDS011;11713;48.506;8.966;2023-10-31T00:45:50;0.57;;;0.50;;
23088;SDS011;11713;48.506;8.966;2023-10-31T00:48:16;0.40;;;0.40;;
23088;SDS011;11713;48.506;8.966;2023-10-31T00:50:42;0.50;;;0.50;;
23088;SDS011;11713;48.506;8.966;2023-10-31T00:53:09;0.60;;;0.60;;
23088;SDS011;11713;48.506;8.966;2023-10-31T00:55:35;0.50;;;0.50;;
23088;SDS011;11713;48.506;8.966;2023-10-31T00:58:01;0.57;;;0.50;;
23088;SDS011;11713;48.506;8.966;2023-10-31T01:00:27;1.33;;;0.40;;
23088;SDS011;11713;48.506;8.966;2023-10-31T01:02:53;0.57;;;0.50;;
23088;SDS011;11713;48.506;8.966;2023-10-31T01:05:18;2.40;;;0.70;;
23088;SDS011;11713;48.506;8.966;2023-10-31T01:07:44;0.50;;;0.50;;
23088;SDS011;11713;48.506;8.966;2023-10-31T01:10:10;0.67;;;0.60;;
23088;SDS011;11713;48.506;8.966;2023-10-31T01:12:36;1.07;;;0.40;;
23088;SDS011;11713;48.506;8.966;2023-10-31T01:15:02;1.97;;;0.60;;
23088;SDS011;11713;48.506;8.966;2023-10-31T01:17:28;0.40;;;0.40;;
23088;SDS011;11713;48.506;8.966;2023-10-31T01:19:54;0.70;;;0.40;;
23088;SDS011;11713;48.506;8.966;2023-10-31T01:22:20;1.60;;;0.40;;
23088;SDS011;11713;48.506;8.966;2023-10-31T01:24:46;0.63;;;0.57;;
23088;SDS011;11713;48.506;8.966;2023-10-31T01:27:12;0.83;;;0.60;;
23088;SDS011;11713;48.506;8.966;2023-10-31T01:29:38;0.47;;;0.47;;
23088;SDS011;11713;48.506;8.966;2023-10-31T01:32:04;0.40;;;0.40;;
23088;SDS011;11713;48.506;8.966;2023-10-31T01:34:30;0.50;;;0.40;;
23088;SDS011;11713;48.506;8.966;2023-10-31T01:36:56;0.50;;;0.50;;
23088;SDS011;11713;48.506;8.966;2023-10-31T01:39:22;0.70;;;0.40;;
23088;SDS011;11713;48.506;8.966;2023-10-31T01:41:47;0.60;;;0.40;;
23088;SDS011;11713;48.506;8.966;2023-10-31T01:44:14;1.83;;;0.50;;
23088;SDS011;11713;48.506;8.966;2023-10-31T01:46:39;0.53;;;0.47;;
23088;SDS011;11713;48.506;8.966;2023-10-31T01:49:05;1.10;;;0.70;;
23088;SDS011;11713;48.506;8.966;2023-10-31T01:51:31;1.30;;;0.63;;
23088;SDS011;11713;48.506;8.966;2023-10-31T01:53:57;1.43;;;0.60;;
23088;SDS011;11713;48.506;8.966;2023-10-31T01:56:23;0.77;;;0.50;;
23088;SDS011;11713;48.506;8.966;2023-10-31T01:58:50;1.00;;;0.50;;
23088;SDS011;11713;48.506;8.966;2023-10-31T02:01:18;0.70;;;0.60;;
23088;SDS011;11713;48.506;8.966;2023-10-31T02:03:44;0.83;;;0.50;;
23088;SDS011;11713;48.506;8.966;2023-10-31T02:06:10;0.57;;;0.57;;
23088;SDS011;11713;48.506;8.966;2023-10-31T02:08:36;0.90;;;0.50;;
23088;SDS011;11713;48.506;8.966;2023-10-31T02:11:02;0.73;;;0.60;;
23088;SDS011;11713;48.506;8.966;2023-10-31T02:13:29;0.97;;;0.53;;
23088;SDS011;11713;48.506;8.966;2023-10-31T02:15:54;1.67;;;0.70;;
23088;SDS011;11713;48.506;8.966;2023-10-31T02:18:20;1.23;;;0.80;;
23088;SDS011;11713;48.506;8.966;2023-10-31T02:20:46;0.50;;;0.50;;
23088;SDS011;11713;48.506;8.966;2023-10-31T02:23:15;0.50;;;0.50;;
23088;SDS011;11713;48.506;8.966;2023-10-31T02:25:41;0.60;;;0.60;;
23088;SDS011;11713;48.506;8.966;2023-10-31T02:28:07;1.30;;;0.40;;
23088;SDS011;11713;48.506;8.966;2023-10-31T02:30:33;0.50;;;0.50;;
23088;SDS011;11713;48.506;8.966;2023-10-31T02:33:00;0.80;;;0.60;;
23088;SDS011;11713;48.506;8.966;2023-10-31T02:35:27;0.57;;;0.57;;
23088;SDS011;11713;48.506;8.966;2023-10-31T02:37:52;1.43;;;0.70;;
23088;SDS011;11713;48.506;8.966;2023-10-31T02:40:18;0.60;;;0.60;;
23088;SDS011;11713;48.506;8.966;2023-10-31T02:42:44;1.80;;;0.60;;
23088;SDS011;11713;48.506;8.966;2023-10-31T02:45:10;1.17;;;0.70;;
23088;SDS011;11713;48.506;8.966;2023-10-31T02:47:36;0.90;;;0.50;;
23088;SDS011;11713;48.506;8.966;2023-10-31T02:50:02;1.27;;;0.67;;
23088;SDS011;11713;48.506;8.966;2023-10-31T02:52:28;0.50;;;0.50;;
23088;SDS011;11713;48.506;8.966;2023-10-31T02:54:54;0.80;;;0.60;;
23088;SDS011;11713;48.506;8.966;2023-10-31T02:57:20;1.03;;;0.63;;
23088;SDS011;11713;48.506;8.966;2023-10-31T02:59:46;0.77;;;0.63;;
23088;SDS011;11713;48.506;8.966;2023-10-31T03:02:12;1.53;;;0.70;;
23088;SDS011;11713;48.506;8.966;2023-10-31T03:04:38;0.50;;;0.50;;
23088;SDS011;11713;48.506;8.966;2023-10-31T03:07:03;1.77;;;0.70;;
23088;SDS011;11713;48.506;8.966;2023-10-31T03:09:29;1.57;;;0.57;;
23088;SDS011;11713;48.506;8.966;2023-10-31T03:11:55;1.20;;;0.60;;
23088;SDS011;11713;48.506;8.966;2023-10-31T03:14:21;0.80;;;0.50;;
23088;SDS011;11713;48.506;8.966;2023-10-31T03:16:47;1.53;;;0.60;;
23088;SDS011;11713;48.506;8.966;2023-10-31T03:19:12;0.83;;;0.60;;
23088;SDS011;11713;48.506;8.966;2023-10-31T03:21:38;1.23;;;0.60;;
23088;SDS011;11713;48.506;8.966;2023-10-31T03:24:04;1.00;;;0.60;;
23088;SDS011;11713;48.506;8.966;2023-10-31T03:26:30;1.67;;;0.70;;
23088;SDS011;11713;48.506;8.966;2023-10-31T03:28:56;0.60;;;0.60;;
23088;SDS011;11713;48.506;8.966;2023-10-31T03:31:22;2.10;;;0.80;;
23088;SDS011;11713;48.506;8.966;2023-10-31T03:33:49;1.03;;;0.80;;
23088;SDS011;11713;48.506;8.966;2023-10-31T03:36:17;1.77;;;1.10;;
23088;SDS011;11713;48.506;8.966;2023-10-31T03:38:42;1.17;;;0.70;;
23088;SDS011;11713;48.506;8.966;2023-10-31T03:41:08;1.57;;;0.57;;
23088;SDS011;11713;48.506;8.966;2023-10-31T03:43:34;1.90;;;0.50;;
23088;SDS011;11713;48.506;8.966;2023-10-31T03:46:00;1.30;;;0.60;;
23088;SDS011;11713;48.506;8.966;2023-10-31T03:48:26;0.50;;;0.50;;
23088;SDS011;11713;48.506;8.966;2023-10-31T03:50:52;1.30;;;0.70;;
23088;SDS011;11713;48.506;8.966;2023-10-31T03:53:18;0.80;;;0.70;;
23088;SDS011;11713;48.506;8.966;2023-10-31T03:55:44;2.07;;;0.60;;
23088;SDS011;11713;48.506;8.966;2023-10-31T03:58:10;1.87;;;0.70;;
23088;SDS011;11713;48.506;8.966;2023-10-31T04:00:36;0.77;;;0.70;;
23088;SDS011;11713;48.506;8.966;2023-10-31T04:03:04;0.87;;;0.80;;
23088;SDS011;11713;48.506;8.966;2023-10-31T04:05:29;1.70;;;0.90;;
23088;SDS011;11713;48.506;8.966;2023-10-31T04:07:55;1.97;;;0.90;;
23088;SDS011;11713;48.506;8.966;2023-10-31T04:10:21;0.90;;;0.90;;
23088;SDS011;11713;48.506;8.966;2023-10-31T04:12:47;0.93;;;0.80;;
23088;SDS011;11713;48.506;8.966;2023-10-31T04:15:13;2.00;;;1.00;;
23088;SDS011;11713;48.506;8.966;2023-10-31T04:17:39;1.60;;;0.80;;
23088;SDS011;11713;48.506;8.966;2023-10-31T04:20:05;1.20;;;0.87;;
23088;SDS011;11713;48.506;8.966;2023-10-31T04:22:31;1.10;;;0.77;;
23088;SDS011;11713;48.506;8.966;2023-10-31T04:24:57;1.03;;;0.70;;
23088;SDS011;11713;48.506;8.966;2023-10-31T04:27:23;1.37;;;0.70;;
23088;SDS011;11713;48.506;8.966;2023-10-31T04:29:49;1.57;;;0.70;;
23088;SDS011;11713;48.506;8.966;2023-10-31T04:32:15;0.67;;;0.50;;
23088;SDS011;11713;48.506;8.966;2023-10-31T04:34:40;0.60;;;0.50;;
23088;SDS011;11713;48.506;8.966;2023-10-31T04:37:06;0.90;;;0.60;;
23088;SDS011;11713;48.506;8.966;2023-10-31T04:39:32;0.40;;;0.40;;
23088;SDS011;11713;48.506;8.966;2023-10-31T04:41:58;2.20;;;0.60;;
23088;SDS011;11713;48.506;8.966;2023-10-31T04:44:24;2.43;;;0.80;;
23088;SDS011;11713;48.506;8.966;2023-10-31T04:46:50;1.23;;;0.70;;
23088;SDS011;11713;48.506;8.966;2023-10-31T04:49:15;1.30;;;0.70;;
23088;SDS011;11713;48.506;8.966;2023-10-31T04:51:41;0.70;;;0.70;;
23088;SDS011;11713;48.506;8.966;2023-10-31T04:54:07;1.57;;;0.67;;
23088;SDS011;11713;48.506;8.966;2023-10-31T04:56:33;1.07;;;0.60;;
23088;SDS011;11713;48.506;8.966;2023-10-31T04:58:59;3.40;;;0.67;;
23088;SDS011;11713;48.506;8.966;2023-10-31T05:01:25;1.57;;;0.50;;
23088;SDS011;11713;48.506;8.966;2023-10-31T05:03:51;0.57;;;0.50;;
23088;SDS011;11713;48.506;8.966;2023-10-31T05:06:21;2.93;;;0.43;;
23088;SDS011;11713;48.506;8.966;2023-10-31T05:08:48;2.13;;;0.60;;
23088;SDS011;11713;48.506;8.966;2023-10-31T05:11:17;0.50;;;0.50;;
23088;SDS011;11713;48.506;8.966;2023-10-31T05:13:44;1.37;;;0.90;;
23088;SDS011;11713;48.506;8.966;2023-10-31T05:16:10;0.70;;;0.70;;
23088;SDS011;11713;48.506;8.966;2023-10-31T05:18:37;1.07;;;0.80;;
23088;SDS011;11713;48.506;8.966;2023-10-31T05:21:04;2.27;;;0.83;;
23088;SDS011;11713;48.506;8.966;2023-10-31T05:23:30;0.50;;;0.50;;
23088;SDS011;11713;48.506;8.966;2023-10-31T05:25:56;0.77;;;0.77;;
23088;SDS011;11713;48.506;8.966;2023-10-31T05:28:22;1.03;;;0.60;;
23088;SDS011;11713;48.506;8.966;2023-10-31T05:30:48;1.63;;;0.70;;
23088;SDS011;11713;48.506;8.966;2023-10-31T05:33:15;2.57;;;0.90;;
23088;SDS011;11713;48.506;8.966;2023-10-31T05:35:42;2.07;;;1.73;;
23088;SDS011;11713;48.506;8.966;2023-10-31T05:38:08;3.60;;;3.30;;
23088;SDS011;11713;48.506;8.966;2023-10-31T05:40:34;5.67;;;2.47;;
23088;SDS011;11713;48.506;8.966;2023-10-31T05:43:01;3.63;;;3.07;;
23088;SDS011;11713;48.506;8.966;2023-10-31T05:45:28;6.03;;;4.17;;
23088;SDS011;11713;48.506;8.966;2023-10-31T05:47:54;15.57;;;8.90;;
23088;SDS011;11713;48.506;8.966;2023-10-31T05:50:20;11.23;;;6.70;;
23088;SDS011;11713;48.506;8.966;2023-10-31T05:52:46;9.63;;;5.63;;
23088;SDS011;11713;48.506;8.966;2023-10-31T05:55:13;15.97;;;10.63;;
23088;SDS011;11713;48.506;8.966;2023-10-31T05:57:39;9.33;;;5.67;;
23088;SDS011;11713;48.506;8.966;2023-10-31T06:00:06;3.73;;;2.40;;
23088;SDS011;11713;48.506;8.966;2023-10-31T06:02:37;1.43;;;1.13;;
23088;SDS011;11713;48.506;8.966;2023-10-31T06:05:03;1.13;;;0.83;;
23088;SDS011;11713;48.506;8.966;2023-10-31T06:07:29;2.33;;;0.90;;
23088;SDS011;11713;48.506;8.966;2023-10-31T06:09:55;5.50;;;5.00;;
23088;SDS011;11713;48.506;8.966;2023-10-31T06:12:21;4.33;;;4.00;;
23088;SDS011;11713;48.506;8.966;2023-10-31T06:14:47;4.93;;;3.67;;
23088;SDS011;11713;48.506;8.966;2023-10-31T06:17:13;4.60;;;3.63;;
23088;SDS011;11713;48.506;8.966;2023-10-31T06:19:38;7.83;;;4.10;;
23088;SDS011;11713;48.506;8.966;2023-10-31T06:22:10;6.13;;;4.63;;
23088;SDS011;11713;48.506;8.966;2023-10-31T06:24:36;2.93;;;1.90;;
23088;SDS011;11713;48.506;8.966;2023-10-31T06:27:02;1.43;;;1.10;;
23088;SDS011;11713;48.506;8.966;2023-10-31T06:29:28;2.80;;;2.00;;
23088;SDS011;11713;48.506;8.966;2023-10-31T06:31:54;3.10;;;1.40;;
23088;SDS011;11713;48.506;8.966;2023-10-31T06:34:20;1.83;;;1.20;;
23088;SDS011;11713;48.506;8.966;2023-10-31T06:36:47;2.20;;;1.47;;
23088;SDS011;11713;48.506;8.966;2023-10-31T06:39:13;2.03;;;1.00;;
23088;SDS011;11713;48.506;8.966;2023-10-31T06:41:39;0.93;;;0.80;;
23088;SDS011;11713;48.506;8.966;2023-10-31T06:44:06;1.67;;;1.00;;
23088;SDS011;11713;48.506;8.966;2023-10-31T06:46:32;2.83;;;1.10;;
23088;SDS011;11713;48.506;8.966;2023-10-31T06:48:57;2.60;;;1.20;;
23088;SDS011;11713;48.506;8.966;2023-10-31T06:51:23;1.37;;;1.10;;
23088;SDS011;11713;48.506;8.966;2023-10-31T06:53:49;3.43;;;1.47;;
23088;SDS011;11713;48.506;8.966;2023-10-31T06:56:16;1.80;;;1.30;;
23088;SDS011;11713;48.506;8.966;2023-10-31T06:58:42;2.43;;;1.40;;
23088;SDS011;11713;48.506;8.966;2023-10-31T07:01:08;1.83;;;1.50;;
23088;SDS011;11713;48.506;8.966;2023-10-31T07:03:34;2.03;;;1.00;;
23088;SDS011;11713;48.506;8.966;2023-10-31T07:06:00;0.90;;;0.70;;
23088;SDS011;11713;48.506;8.966;2023-10-31T07:08:26;1.97;;;1.00;;
23088;SDS011;11713;48.506;8.966;2023-10-31T07:10:51;1.83;;;0.90;;
23088;SDS011;11713;48.506;8.966;2023-10-31T07:13:17;2.17;;;0.97;;
23088;SDS011;11713;48.506;8.966;2023-10-31T07:15:43;5.60;;;1.60;;
23088;SDS011;11713;48.506;8.966;2023-10-31T07:18:09;5.77;;;1.10;;
23088;SDS011;11713;48.506;8.966;2023-10-31T07:20:36;6.00;;;1.20;;
23088;SDS011;11713;48.506;8.966;2023-10-31T07:23:01;4.23;;;1.30;;
23088;SDS011;11713;48.506;8.966;2023-10-31T07:25:27;2.77;;;1.10;;
23088;SDS011;11713;48.506;8.966;2023-10-31T07:27:53;1.57;;;1.20;;
23088;SDS011;11713;48.506;8.966;2023-10-31T07:30:19;2.57;;;1.10;;
23088;SDS011;11713;48.506;8.966;2023-10-31T07:32:45;2.47;;;1.37;;
23088;SDS011;11713;48.506;8.966;2023-10-31T07:35:11;2.10;;;1.27;;
23088;SDS011;11713;48.506;8.966;2023-10-31T07:37:36;2.10;;;1.23;;
23088;SDS011;11713;48.506;8.966;2023-10-31T07:40:02;4.00;;;1.30;;
23088;SDS011;11713;48.506;8.966;2023-10-31T07:42:29;2.17;;;1.20;;
23088;SDS011;11713;48.506;8.966;2023-10-31T07:44:55;4.90;;;1.47;;
23088;SDS011;11713;48.506;8.966;2023-10-31T07:47:21;1.47;;;1.10;;
23088;SDS011;11713;48.506;8.966;2023-10-31T07:49:47;1.93;;;1.10;;
23088;SDS011;11713;48.506;8.966;2023-10-31T07:52:14;2.40;;;1.20;;
23088;SDS011;11713;48.506;8.966;2023-10-31T07:54:40;2.73;;;1.13;;
23088;SDS011;11713;48.506;8.966;2023-10-31T07:57:08;1.47;;;1.20;;
23088;SDS011;11713;48.506;8.966;2023-10-31T07:59:34;3.70;;;1.23;;
23088;SDS011;11713;48.506;8.966;2023-10-31T08:02:00;1.90;;;1.40;;
23088;SDS011;11713;48.506;8.966;2023-10-31T08:04:28;3.17;;;1.40;;
23088;SDS011;11713;48.506;8.966;2023-10-31T08:06:55;2.50;;;1.20;;
23088;SDS011;11713;48.506;8.966;2023-10-31T08:09:21;1.33;;;1.00;;
23088;SDS011;11713;48.506;8.966;2023-10-31T08:11:47;2.17;;;0.97;;
23088;SDS011;11713;48.506;8.966;2023-10-31T08:14:17;4.70;;;1.30;;
23088;SDS011;11713;48.506;8.966;2023-10-31T08:16:44;3.33;;;1.27;;
23088;SDS011;11713;48.506;8.966;2023-10-31T08:19:10;2.37;;;1.30;;
23088;SDS011;11713;48.506;8.966;2023-10-31T08:21:37;1.77;;;1.03;;
23088;SDS011;11713;48.506;8.966;2023-10-31T08:24:03;1.60;;;1.10;;
23088;SDS011;11713;48.506;8.966;2023-10-31T08:26:30;1.57;;;1.03;;
23088;SDS011;11713;48.506;8.966;2023-10-31T08:28:58;3.20;;;1.20;;
23088;SDS011;11713;48.506;8.966;2023-10-31T08:31:24;3.17;;;1.80;;
23088;SDS011;11713;48.506;8.966;2023-10-31T08:33:50;2.07;;;1.20;;
23088;SDS011;11713;48.506;8.966;2023-10-31T08:36:16;4.20;;;1.10;;
23088;SDS011;11713;48.506;8.966;2023-10-31T08:38:42;1.93;;;0.90;;
23088;SDS011;11713;48.506;8.966;2023-10-31T08:41:14;3.77;;;1.50;;
23088;SDS011;11713;48.506;8.966;2023-10-31T08:43:48;3.13;;;1.23;;
23088;SDS011;11713;48.506;8.966;2023-10-31T08:46:33;2.77;;;1.20;;
23088;SDS011;11713;48.506;8.966;2023-10-31T08:48:59;3.47;;;1.07;;
23088;SDS011;11713;48.506;8.966;2023-10-31T08:51:25;2.33;;;1.20;;
23088;SDS011;11713;48.506;8.966;2023-10-31T08:53:52;2.17;;;1.33;;
23088;SDS011;11713;48.506;8.966;2023-10-31T08:56:26;1.97;;;0.80;;
23088;SDS011;11713;48.506;8.966;2023-10-31T08:59:12;2.23;;;0.90;;
23088;SDS011;11713;48.506;8.966;2023-10-31T09:01:43;3.40;;;1.00;;
23088;SDS011;11713;48.506;8.966;2023-10-31T09:04:14;7.07;;;2.00;;
23088;SDS011;11713;48.506;8.966;2023-10-31T09:06:48;4.23;;;1.93;;
23088;SDS011;11713;48.506;8.966;2023-10-31T09:09:16;3.17;;;1.93;;
23088;SDS011;11713;48.506;8.966;2023-10-31T09:11:42;1.93;;;1.43;;
23088;SDS011;11713;48.506;8.966;2023-10-31T09:14:10;3.77;;;1.70;;
23088;SDS011;11713;48.506;8.966;2023-10-31T09:16:43;2.33;;;1.50;;
23088;SDS011;11713;48.506;8.966;2023-10-31T09:19:12;2.00;;;1.10;;
23088;SDS011;11713;48.506;8.966;2023-10-31T09:21:39;4.87;;;1.20;;
23088;SDS011;11713;48.506;8.966;2023-10-31T09:24:05;6.80;;;1.23;;
23088;SDS011;11713;48.506;8.966;2023-10-31T09:26:32;3.00;;;1.30;;
23088;SDS011;11713;48.506;8.966;2023-10-31T09:28:59;5.20;;;1.47;;
23088;SDS011;11713;48.506;8.966;2023-10-31T09:31:25;3.50;;;1.40;;
23088;SDS011;11713;48.506;8.966;2023-10-31T09:33:51;3.67;;;1.60;;
23088;SDS011;11713;48.506;8.966;2023-10-31T09:36:19;3.67;;;1.50;;
23088;SDS011;11713;48.506;8.966;2023-10-31T09:38:45;1.73;;;0.90;;
23088;SDS011;11713;48.506;8.966;2023-10-31T09:41:14;2.20;;;0.93;;
23088;SDS011;11713;48.506;8.966;2023-10-31T09:43:41;4.43;;;1.30;;
23088;SDS011;11713;48.506;8.966;2023-10-31T09:46:07;5.87;;;1.20;;
23088;SDS011;11713;48.506;8.966;2023-10-31T09:48:35;3.70;;;1.90;;
23088;SDS011;11713;48.506;8.966;2023-10-31T09:51:01;3.93;;;1.20;;
23088;SDS011;11713;48.506;8.966;2023-10-31T09:53:28;6.13;;;1.40;;
23088;SDS011;11713;48.506;8.966;2023-10-31T09:55:57;2.40;;;1.47;;
23088;SDS011;11713;48.506;8.966;2023-10-31T09:58:23;6.87;;;1.63;;
23088;SDS011;11713;48.506;8.966;2023-10-31T10:00:49;1.80;;;1.13;;
23088;SDS011;11713;48.506;8.966;2023-10-31T10:03:15;3.17;;;1.30;;
23088;SDS011;11713;48.506;8.966;2023-10-31T10:05:44;2.27;;;0.93;;
23088;SDS011;11713;48.506;8.966;2023-10-31T10:08:11;3.63;;;1.40;;
23088;SDS011;11713;48.506;8.966;2023-10-31T10:10:37;6.63;;;1.40;;
23088;SDS011;11713;48.506;8.966;2023-10-31T10:13:03;5.67;;;1.17;;
23088;SDS011;11713;48.506;8.966;2023-10-31T10:15:30;2.83;;;1.10;;
23088;SDS011;11713;48.506;8.966;2023-10-31T10:18:33;3.00;;;1.00;;
23088;SDS011;11713;48.506;8.966;2023-10-31T10:21:05;3.67;;;1.30;;
23088;SDS011;11713;48.506;8.966;2023-10-31T10:23:32;2.50;;;1.33;;
23088;SDS011;11713;48.506;8.966;2023-10-31T10:25:58;2.57;;;1.47;;
23088;SDS011;11713;48.506;8.966;2023-10-31T10:28:26;2.97;;;1.40;;
23088;SDS011;11713;48.506;8.966;2023-10-31T10:30:55;3.37;;;1.37;;
23088;SDS011;11713;48.506;8.966;2023-10-31T10:33:21;1.53;;;0.80;;
23088;SDS011;11713;48.506;8.966;2023-10-31T10:35:48;2.33;;;0.80;;
23088;SDS011;11713;48.506;8.966;2023-10-31T10:38:14;4.37;;;1.17;;
23088;SDS011;11713;48.506;8.966;2023-10-31T10:40:42;4.33;;;1.00;;
23088;SDS011;11713;48.506;8.966;2023-10-31T10:43:13;2.63;;;1.10;;
23088;SDS011;11713;48.506;8.966;2023-10-31T10:45:58;2.77;;;0.90;;
23088;SDS011;11713;48.506;8.966;2023-10-31T10:48:25;2.27;;;0.87;;
23088;SDS011;11713;48.506;8.966;2023-10-31T10:53:55;1.70;;;0.70;;
23088;SDS011;11713;48.506;8.966;2023-10-31T10:56:41;1.20;;;0.60;;
23088;SDS011;11713;48.506;8.966;2023-10-31T10:59:25;2.17;;;0.50;;
23088;SDS011;11713;48.506;8.966;2023-10-31T11:02:01;1.23;;;0.60;;
23088;SDS011;11713;48.506;8.966;2023-10-31T11:04:30;1.80;;;0.60;;
23088;SDS011;11713;48.506;8.966;2023-10-31T11:06:57;0.80;;;0.50;;
23088;SDS011;11713;48.506;8.966;2023-10-31T11:09:23;0.70;;;0.60;;
23088;SDS011;11713;48.506;8.966;2023-10-31T11:11:50;0.97;;;0.50;;
23088;SDS011;11713;48.506;8.966;2023-10-31T11:14:17;2.50;;;0.87;;
23088;SDS011;11713;48.506;8.966;2023-10-31T11:16:44;1.53;;;0.60;;
23088;SDS011;11713;48.506;8.966;2023-10-31T11:19:16;1.03;;;0.70;;
23088;SDS011;11713;48.506;8.966;2023-10-31T11:21:52;0.60;;;0.53;;
23088;SDS011;11713;48.506;8.966;2023-10-31T11:24:22;1.27;;;0.70;;
23088;SDS011;11713;48.506;8.966;2023-10-31T11:26:52;0.57;;;0.53;;
23088;SDS011;11713;48.506;8.966;2023-10-31T11:29:22;1.07;;;0.60;;
23088;SDS011;11713;48.506;8.966;2023-10-31T11:31:49;1.43;;;0.47;;
23088;SDS011;11713;48.506;8.966;2023-10-31T11:34:16;0.60;;;0.60;;
23088;SDS011;11713;48.506;8.966;2023-10-31T11:36:45;2.07;;;0.80;;
23088;SDS011;11713;48.506;8.966;2023-10-31T11:39:14;1.20;;;0.70;;
23088;SDS011;11713;48.506;8.966;2023-10-31T11:41:49;1.00;;;0.40;;
23088;SDS011;11713;48.506;8.966;2023-10-31T11:44:16;1.50;;;0.50;;
23088;SDS011;11713;48.506;8.966;2023-10-31T11:46:43;0.77;;;0.50;;
23088;SDS011;11713;48.506;8.966;2023-10-31T11:49:15;1.27;;;0.80;;
23088;SDS011;11713;48.506;8.966;2023-10-31T11:51:41;1.10;;;0.50;;
23088;SDS011;11713;48.506;8.966;2023-10-31T11:54:15;1.43;;;0.47;;
23088;SDS011;11713;48.506;8.966;2023-10-31T11:56:50;1.33;;;0.50;;
23088;SDS011;11713;48.506;8.966;2023-10-31T11:59:17;0.57;;;0.37;;
23088;SDS011;11713;48.506;8.966;2023-10-31T12:01:45;1.17;;;0.57;;
23088;SDS011;11713;48.506;8.966;2023-10-31T12:04:22;0.30;;;0.30;;
23088;SDS011;11713;48.506;8.966;2023-10-31T12:06:56;3.23;;;0.80;;
23088;SDS011;11713;48.506;8.966;2023-10-31T12:09:31;1.07;;;0.50;;
23088;SDS011;11713;48.506;8.966;2023-10-31T12:11:58;2.13;;;0.60;;
23088;SDS011;11713;48.506;8.966;2023-10-31T12:14:23;1.53;;;0.70;;
23088;SDS011;11713;48.506;8.966;2023-10-31T12:16:49;0.73;;;0.40;;
23088;SDS011;11713;48.506;8.966;2023-10-31T12:19:15;2.03;;;0.80;;
23088;SDS011;11713;48.506;8.966;2023-10-31T12:24:15;0.90;;;0.43;;
23088;SDS011;11713;48.506;8.966;2023-10-31T12:26:42;0.30;;;0.30;;
23088;SDS011;11713;48.506;8.966;2023-10-31T12:29:19;0.33;;;0.30;;
23088;SDS011;11713;48.506;8.966;2023-10-31T12:31:46;1.37;;;0.40;;
23088;SDS011;11713;48.506;8.966;2023-10-31T12:34:14;1.10;;;0.50;;
23088;SDS011;11713;48.506;8.966;2023-10-31T12:36:41;0.57;;;0.50;;
23088;SDS011;11713;48.506;8.966;2023-10-31T12:39:10;0.73;;;0.50;;
23088;SDS011;11713;48.506;8.966;2023-10-31T12:41:37;0.93;;;0.43;;
23088;SDS011;11713;48.506;8.966;2023-10-31T12:44:05;0.93;;;0.53;;
23088;SDS011;11713;48.506;8.966;2023-10-31T12:46:35;1.33;;;0.37;;
23088;SDS011;11713;48.506;8.966;2023-10-31T12:49:10;1.37;;;0.60;;
23088;SDS011;11713;48.506;8.966;2023-10-31T12:51:38;0.60;;;0.50;;
23088;SDS011;11713;48.506;8.966;2023-10-31T12:54:26;0.47;;;0.30;;
23088;SDS011;11713;48.506;8.966;2023-10-31T12:57:04;1.43;;;0.70;;
23088;SDS011;11713;48.506;8.966;2023-10-31T12:59:32;2.97;;;0.70;;
23088;SDS011;11713;48.506;8.966;2023-10-31T13:01:59;0.97;;;0.60;;
23088;SDS011;11713;48.506;8.966;2023-10-31T13:04:29;2.33;;;0.70;;
23088;SDS011;11713;48.506;8.966;2023-10-31T13:09:31;0.63;;;0.50;;
23088;SDS011;11713;48.506;8.966;2023-10-31T13:12:02;0.93;;;0.60;;
23088;SDS011;11713;48.506;8.966;2023-10-31T13:14:30;5.20;;;0.90;;
23088;SDS011;11713;48.506;8.966;2023-10-31T13:16:56;1.67;;;0.70;;
23088;SDS011;11713;48.506;8.966;2023-10-31T13:19:22;1.70;;;0.70;;
23088;SDS011;11713;48.506;8.966;2023-10-31T13:21:48;0.97;;;0.60;;
23088;SDS011;11713;48.506;8.966;2023-10-31T13:24:15;2.67;;;0.60;;
23088;SDS011;11713;48.506;8.966;2023-10-31T13:26:41;1.20;;;0.60;;
23088;SDS011;11713;48.506;8.966;2023-10-31T13:29:06;2.17;;;0.63;;
23088;SDS011;11713;48.506;8.966;2023-10-31T13:31:32;0.90;;;0.60;;
23088;SDS011;11713;48.506;8.966;2023-10-31T13:33:58;1.10;;;0.60;;
23088;SDS011;11713;48.506;8.966;2023-10-31T13:36:25;1.20;;;0.60;;
23088;SDS011;11713;48.506;8.966;2023-10-31T13:38:51;2.20;;;0.70;;
23088;SDS011;11713;48.506;8.966;2023-10-31T13:41:17;1.30;;;0.60;;
23088;SDS011;11713;48.506;8.966;2023-10-31T13:43:43;1.03;;;0.60;;
23088;SDS011;11713;48.506;8.966;2023-10-31T13:46:09;1.13;;;0.50;;
23088;SDS011;11713;48.506;8.966;2023-10-31T13:48:35;1.27;;;0.60;;
23088;SDS011;11713;48.506;8.966;2023-10-31T13:51:00;0.50;;;0.50;;
23088;SDS011;11713;48.506;8.966;2023-10-31T13:53:26;0.40;;;0.40;;
23088;SDS011;11713;48.506;8.966;2023-10-31T13:55:52;1.27;;;0.60;;
23088;SDS011;11713;48.506;8.966;2023-10-31T13:58:18;0.83;;;0.60;;
23088;SDS011;11713;48.506;8.966;2023-10-31T14:00:45;0.63;;;0.47;;
23088;SDS011;11713;48.506;8.966;2023-10-31T14:03:11;1.70;;;0.57;;
23088;SDS011;11713;48.506;8.966;2023-10-31T14:05:37;1.17;;;0.70;;
23088;SDS011;11713;48.506;8.966;2023-10-31T14:08:04;0.93;;;0.63;;
23088;SDS011;11713;48.506;8.966;2023-10-31T14:10:31;2.33;;;0.60;;
23088;SDS011;11713;48.506;8.966;2023-10-31T14:12:57;1.13;;;0.60;;
23088;SDS011;11713;48.506;8.966;2023-10-31T14:15:23;1.43;;;0.63;;
23088;SDS011;11713;48.506;8.966;2023-10-31T14:17:52;3.03;;;1.10;;
23088;SDS011;11713;48.506;8.966;2023-10-31T14:20:18;3.73;;;0.90;;
23088;SDS011;11713;48.506;8.966;2023-10-31T14:22:48;1.33;;;0.60;;
23088;SDS011;11713;48.506;8.966;2023-10-31T14:25:15;1.10;;;0.60;;
23088;SDS011;11713;48.506;8.966;2023-10-31T14:27:41;0.70;;;0.60;;
23088;SDS011;11713;48.506;8.966;2023-10-31T14:30:09;5.50;;;4.03;;
23088;SDS011;11713;48.506;8.966;2023-10-31T14:32:36;3.30;;;1.40;;
23088;SDS011;11713;48.506;8.966;2023-10-31T14:35:02;3.57;;;1.63;;
23088;SDS011;11713;48.506;8.966;2023-10-31T14:37:28;3.47;;;0.87;;
23088;SDS011;11713;48.506;8.966;2023-10-31T14:39:54;2.33;;;0.67;;
23088;SDS011;11713;48.506;8.966;2023-10-31T14:42:20;2.40;;;0.80;;
23088;SDS011;11713;48.506;8.966;2023-10-31T14:44:46;1.70;;;0.70;;
23088;SDS011;11713;48.506;8.966;2023-10-31T14:47:12;1.10;;;0.70;;
23088;SDS011;11713;48.506;8.966;2023-10-31T14:49:38;1.53;;;0.80;;
23088;SDS011;11713;48.506;8.966;2023-10-31T14:52:04;1.17;;;0.80;;
23088;SDS011;11713;48.506;8.966;2023-10-31T14:54:33;1.37;;;0.90;;
23088;SDS011;11713;48.506;8.966;2023-10-31T14:57:00;1.17;;;0.97;;